sensor_id;sensor_type;location;lat;lon;timestamp;P1;durP1;ratioP1;P2;durP2;ratioP2
37787;SDS011;23627;53.302;-6.362;2024-02-14T00:00:33;2.75;;;1.92;;
37787;SDS011;23627;53.302;-6.362;2024-02-14T00:02:58;3.03;;;1.80;;
37787;SDS011;23627;53.302;-6.362;2024-02-14T00:05:24;3.40;;;1.65;;
37787;SDS011;23627;53.302;-6.362;2024-02-14T00:07:51;2.33;;;1.50;;
37787;SDS011;23627;53.302;-6.362;2024-02-14T00:10:17;2.25;;;1.52;;
37787;SDS011;23627;53.302;-6.362;2024-02-14T00:12:43;3.13;;;1.35;;
37787;SDS011;23627;53.302;-6.362;2024-02-14T00:15:09;4.32;;;1.55;;
37787;SDS011;23627;53.302;-6.362;2024-02-14T00:17:35;3.58;;;1.50;;
37787;SDS011;23627;53.302;-6.362;2024-02-14T00:20:02;3.58;;;1.60;;
37787;SDS011;23627;53.302;-6.362;2024-02-14T00:22:28;2.17;;;1.17;;
37787;SDS011;23627;53.302;-6.362;2024-02-14T00:24:55;2.58;;;1.30;;
37787;SDS011;23627;53.302;-6.362;2024-02-14T00:27:20;3.63;;;1.60;;
37787;SDS011;23627;53.302;-6.362;2024-02-14T00:29:46;2.30;;;1.20;;
37787;SDS011;23627;53.302;-6.362;2024-02-14T00:32:13;2.45;;;1.45;;
37787;SDS011;23627;53.302;-6.362;2024-02-14T00:34:39;2.38;;;1.45;;
37787;SDS011;23627;53.302;-6.362;2024-02-14T00:37:05;2.90;;;1.13;;
37787;SDS011;23627;53.302;-6.362;2024-02-14T00:39:30;2.58;;;1.10;;
37787;SDS011;23627;53.302;-6.362;2024-02-14T00:41:56;1.83;;;1.00;;
37787;SDS011;23627;53.302;-6.362;2024-02-14T00:44:22;1.95;;;1.17;;
37787;SDS011;23627;53.302;-6.362;2024-02-14T00:46:48;1.40;;;0.88;;
37787;SDS011;23627;53.302;-6.362;2024-02-14T00:49:14;2.70;;;0.98;;
37787;SDS011;23627;53.302;-6.362;2024-02-14T00:51:40;2.17;;;1.10;;
37787;SDS011;23627;53.302;-6.362;2024-02-14T00:54:06;1.05;;;0.90;;
37787;SDS011;23627;53.302;-6.362;2024-02-14T00:56:33;1.30;;;0.90;;
37787;SDS011;23627;53.302;-6.362;2024-02-14T00:58:59;3.45;;;0.90;;
37787;SDS011;23627;53.302;-6.362;2024-02-14T01:01:25;1.40;;;0.68;;
37787;SDS011;23627;53.302;-6.362;2024-02-14T01:03:51;1.48;;;0.65;;
37787;SDS011;23627;53.302;-6.362;2024-02-14T01:06:17;1.05;;;0.70;;
37787;SDS011;23627;53.302;-6.362;2024-02-14T01:08:44;1.27;;;0.75;;
37787;SDS011;23627;53.302;-6.362;2024-02-14T01:11:10;1.27;;;0.50;;
37787;SDS011;23627;53.302;-6.362;2024-02-14T01:13:37;0.95;;;0.50;;
37787;SDS011;23627;53.302;-6.362;2024-02-14T01:16:03;1.02;;;0.50;;
37787;SDS011;23627;53.302;-6.362;2024-02-14T01:18:30;0.77;;;0.52;;
37787;SDS011;23627;53.302;-6.362;2024-02-14T01:20:56;1.67;;;0.60;;
37787;SDS011;23627;53.302;-6.362;2024-02-14T01:23:24;0.80;;;0.50;;
37787;SDS011;23627;53.302;-6.362;2024-02-14T01:25:50;1.00;;;0.60;;
37787;SDS011;23627;53.302;-6.362;2024-02-14T01:28:15;2.50;;;0.80;;
37787;SDS011;23627;53.302;-6.362;2024-02-14T01:30:42;1.08;;;0.60;;
37787;SDS011;23627;53.302;-6.362;2024-02-14T01:33:08;0.88;;;0.60;;
37787;SDS011;23627;53.302;-6.362;2024-02-14T01:35:34;0.98;;;0.63;;
37787;SDS011;23627;53.302;-6.362;2024-02-14T01:38:00;0.82;;;0.50;;
37787;SDS011;23627;53.302;-6.362;2024-02-14T01:40:28;1.48;;;0.60;;
37787;SDS011;23627;53.302;-6.362;2024-02-14T01:42:54;3.65;;;0.70;;
37787;SDS011;23627;53.302;-6.362;2024-02-14T01:45:20;1.10;;;0.60;;
37787;SDS011;23627;53.302;-6.362;2024-02-14T01:47:47;1.27;;;0.65;;
37787;SDS011;23627;53.302;-6.362;2024-02-14T01:50:15;1.98;;;0.70;;
37787;SDS011;23627;53.302;-6.362;2024-02-14T01:52:41;2.25;;;0.55;;
37787;SDS011;23627;53.302;-6.362;2024-02-14T01:55:09;1.38;;;0.60;;
37787;SDS011;23627;53.302;-6.362;2024-02-14T01:57:37;2.42;;;0.70;;
37787;SDS011;23627;53.302;-6.362;2024-02-14T02:00:05;1.30;;;0.60;;
37787;SDS011;23627;53.302;-6.362;2024-02-14T02:02:33;1.55;;;0.70;;
37787;SDS011;23627;53.302;-6.362;2024-02-14T02:05:02;1.33;;;0.70;;
37787;SDS011;23627;53.302;-6.362;2024-02-14T02:07:28;0.73;;;0.50;;
37787;SDS011;23627;53.302;-6.362;2024-02-14T02:09:55;2.00;;;0.70;;
37787;SDS011;23627;53.302;-6.362;2024-02-14T02:12:21;1.60;;;0.52;;
37787;SDS011;23627;53.302;-6.362;2024-02-14T02:14:46;3.03;;;0.63;;
37787;SDS011;23627;53.302;-6.362;2024-02-14T02:17:12;1.58;;;0.70;;
37787;SDS011;23627;53.302;-6.362;2024-02-14T02:19:38;1.88;;;0.70;;
37787;SDS011;23627;53.302;-6.362;2024-02-14T02:22:04;3.72;;;0.85;;
37787;SDS011;23627;53.302;-6.362;2024-02-14T02:24:30;2.25;;;0.75;;
37787;SDS011;23627;53.302;-6.362;2024-02-14T02:26:56;2.60;;;0.60;;
37787;SDS011;23627;53.302;-6.362;2024-02-14T02:29:22;2.05;;;0.80;;
37787;SDS011;23627;53.302;-6.362;2024-02-14T02:34:27;1.85;;;0.75;;
37787;SDS011;23627;53.302;-6.362;2024-02-14T02:36:53;2.60;;;0.77;;
37787;SDS011;23627;53.302;-6.362;2024-02-14T02:39:18;2.05;;;0.60;;
37787;SDS011;23627;53.302;-6.362;2024-02-14T02:41:44;1.67;;;0.80;;
37787;SDS011;23627;53.302;-6.362;2024-02-14T02:44:12;1.48;;;0.60;;
37787;SDS011;23627;53.302;-6.362;2024-02-14T02:46:38;2.63;;;0.82;;
37787;SDS011;23627;53.302;-6.362;2024-02-14T02:49:07;1.83;;;0.70;;
37787;SDS011;23627;53.302;-6.362;2024-02-14T02:51:33;2.05;;;0.70;;
37787;SDS011;23627;53.302;-6.362;2024-02-14T02:53:59;1.13;;;0.52;;
37787;SDS011;23627;53.302;-6.362;2024-02-14T02:56:24;1.55;;;0.68;;
37787;SDS011;23627;53.302;-6.362;2024-02-14T02:58:54;3.22;;;0.70;;
37787;SDS011;23627;53.302;-6.362;2024-02-14T03:01:20;1.80;;;0.52;;
37787;SDS011;23627;53.302;-6.362;2024-02-14T03:03:49;2.20;;;0.73;;
37787;SDS011;23627;53.302;-6.362;2024-02-14T03:06:15;2.92;;;0.88;;
37787;SDS011;23627;53.302;-6.362;2024-02-14T03:08:48;1.88;;;0.60;;
37787;SDS011;23627;53.302;-6.362;2024-02-14T03:11:15;2.03;;;0.70;;
37787;SDS011;23627;53.302;-6.362;2024-02-14T03:13:41;3.47;;;0.82;;
37787;SDS011;23627;53.302;-6.362;2024-02-14T03:16:10;2.10;;;0.70;;
37787;SDS011;23627;53.302;-6.362;2024-02-14T03:18:36;2.30;;;0.70;;
37787;SDS011;23627;53.302;-6.362;2024-02-14T03:21:03;1.52;;;0.68;;
37787;SDS011;23627;53.302;-6.362;2024-02-14T03:23:33;2.55;;;0.60;;
37787;SDS011;23627;53.302;-6.362;2024-02-14T03:25:59;1.33;;;0.57;;
37787;SDS011;23627;53.302;-6.362;2024-02-14T03:28:27;3.40;;;0.70;;
37787;SDS011;23627;53.302;-6.362;2024-02-14T03:30:53;1.42;;;0.70;;
37787;SDS011;23627;53.302;-6.362;2024-02-14T03:33:19;1.88;;;0.68;;
37787;SDS011;23627;53.302;-6.362;2024-02-14T03:35:45;1.42;;;0.60;;
37787;SDS011;23627;53.302;-6.362;2024-02-14T03:38:13;2.45;;;0.60;;
37787;SDS011;23627;53.302;-6.362;2024-02-14T03:40:50;2.17;;;0.60;;
37787;SDS011;23627;53.302;-6.362;2024-02-14T03:43:16;1.58;;;0.68;;
37787;SDS011;23627;53.302;-6.362;2024-02-14T03:45:44;2.03;;;0.52;;
37787;SDS011;23627;53.302;-6.362;2024-02-14T03:48:11;1.20;;;0.77;;
37787;SDS011;23627;53.302;-6.362;2024-02-14T03:50:39;1.45;;;0.50;;
37787;SDS011;23627;53.302;-6.362;2024-02-14T03:53:05;1.95;;;0.70;;
37787;SDS011;23627;53.302;-6.362;2024-02-14T03:55:31;2.50;;;0.70;;
37787;SDS011;23627;53.302;-6.362;2024-02-14T03:57:57;1.80;;;0.60;;
37787;SDS011;23627;53.302;-6.362;2024-02-14T04:00:23;2.78;;;0.60;;
37787;SDS011;23627;53.302;-6.362;2024-02-14T04:02:49;2.60;;;0.60;;
37787;SDS011;23627;53.302;-6.362;2024-02-14T04:05:18;2.92;;;0.70;;
37787;SDS011;23627;53.302;-6.362;2024-02-14T04:07:44;1.58;;;0.50;;
37787;SDS011;23627;53.302;-6.362;2024-02-14T04:10:14;1.50;;;0.50;;
37787;SDS011;23627;53.302;-6.362;2024-02-14T04:12:40;3.40;;;0.80;;
37787;SDS011;23627;53.302;-6.362;2024-02-14T04:15:06;0.93;;;0.52;;
37787;SDS011;23627;53.302;-6.362;2024-02-14T04:17:32;1.83;;;0.75;;
37787;SDS011;23627;53.302;-6.362;2024-02-14T04:19:58;2.03;;;0.47;;
37787;SDS011;23627;53.302;-6.362;2024-02-14T04:22:24;2.40;;;0.60;;
37787;SDS011;23627;53.302;-6.362;2024-02-14T04:24:52;1.15;;;0.45;;
37787;SDS011;23627;53.302;-6.362;2024-02-14T04:27:18;1.58;;;0.50;;
37787;SDS011;23627;53.302;-6.362;2024-02-14T04:29:47;2.08;;;0.60;;
37787;SDS011;23627;53.302;-6.362;2024-02-14T04:32:13;2.58;;;1.00;;
37787;SDS011;23627;53.302;-6.362;2024-02-14T04:34:39;1.23;;;0.50;;
37787;SDS011;23627;53.302;-6.362;2024-02-14T04:37:05;1.95;;;0.60;;
37787;SDS011;23627;53.302;-6.362;2024-02-14T04:39:46;2.03;;;0.55;;
37787;SDS011;23627;53.302;-6.362;2024-02-14T04:42:12;1.58;;;0.60;;
37787;SDS011;23627;53.302;-6.362;2024-02-14T04:44:38;3.60;;;0.60;;
37787;SDS011;23627;53.302;-6.362;2024-02-14T04:47:04;3.78;;;0.65;;
37787;SDS011;23627;53.302;-6.362;2024-02-14T04:49:30;1.60;;;0.68;;
37787;SDS011;23627;53.302;-6.362;2024-02-14T04:51:56;1.83;;;0.70;;
37787;SDS011;23627;53.302;-6.362;2024-02-14T04:54:22;1.25;;;0.55;;
37787;SDS011;23627;53.302;-6.362;2024-02-14T04:56:48;2.90;;;1.00;;
37787;SDS011;23627;53.302;-6.362;2024-02-14T04:59:23;2.40;;;0.80;;
37787;SDS011;23627;53.302;-6.362;2024-02-14T05:01:51;2.95;;;0.80;;
37787;SDS011;23627;53.302;-6.362;2024-02-14T05:04:19;2.75;;;0.80;;
37787;SDS011;23627;53.302;-6.362;2024-02-14T05:06:45;1.50;;;0.55;;
37787;SDS011;23627;53.302;-6.362;2024-02-14T05:09:11;3.90;;;0.80;;
37787;SDS011;23627;53.302;-6.362;2024-02-14T05:11:37;3.92;;;0.80;;
37787;SDS011;23627;53.302;-6.362;2024-02-14T05:14:03;2.50;;;0.52;;
37787;SDS011;23627;53.302;-6.362;2024-02-14T05:16:29;2.40;;;0.80;;
37787;SDS011;23627;53.302;-6.362;2024-02-14T05:18:54;2.92;;;0.60;;
37787;SDS011;23627;53.302;-6.362;2024-02-14T05:21:20;3.47;;;0.80;;
37787;SDS011;23627;53.302;-6.362;2024-02-14T05:23:47;3.15;;;0.68;;
37787;SDS011;23627;53.302;-6.362;2024-02-14T05:26:13;3.30;;;0.85;;
37787;SDS011;23627;53.302;-6.362;2024-02-14T05:28:39;4.72;;;1.00;;
37787;SDS011;23627;53.302;-6.362;2024-02-14T05:31:05;2.20;;;0.70;;
37787;SDS011;23627;53.302;-6.362;2024-02-14T05:33:30;3.55;;;1.05;;
37787;SDS011;23627;53.302;-6.362;2024-02-14T05:35:59;3.20;;;0.90;;
37787;SDS011;23627;53.302;-6.362;2024-02-14T05:38:25;3.20;;;0.70;;
37787;SDS011;23627;53.302;-6.362;2024-02-14T05:40:51;4.82;;;0.80;;
37787;SDS011;23627;53.302;-6.362;2024-02-14T05:43:16;4.22;;;0.90;;
37787;SDS011;23627;53.302;-6.362;2024-02-14T05:45:43;7.13;;;1.20;;
37787;SDS011;23627;53.302;-6.362;2024-02-14T05:48:09;2.75;;;0.70;;
37787;SDS011;23627;53.302;-6.362;2024-02-14T05:50:35;4.45;;;1.00;;
37787;SDS011;23627;53.302;-6.362;2024-02-14T05:53:04;6.20;;;1.45;;
37787;SDS011;23627;53.302;-6.362;2024-02-14T05:55:29;5.15;;;0.98;;
37787;SDS011;23627;53.302;-6.362;2024-02-14T05:57:58;4.15;;;0.88;;
37787;SDS011;23627;53.302;-6.362;2024-02-14T06:00:25;5.35;;;0.93;;
37787;SDS011;23627;53.302;-6.362;2024-02-14T06:02:51;6.78;;;1.08;;
37787;SDS011;23627;53.302;-6.362;2024-02-14T06:05:17;4.43;;;0.70;;
37787;SDS011;23627;53.302;-6.362;2024-02-14T06:07:43;5.40;;;1.17;;
37787;SDS011;23627;53.302;-6.362;2024-02-14T06:10:10;6.70;;;1.30;;
37787;SDS011;23627;53.302;-6.362;2024-02-14T06:12:39;4.88;;;1.02;;
37787;SDS011;23627;53.302;-6.362;2024-02-14T06:15:08;9.18;;;1.50;;
37787;SDS011;23627;53.302;-6.362;2024-02-14T06:17:34;8.23;;;1.27;;
37787;SDS011;23627;53.302;-6.362;2024-02-14T06:20:00;5.65;;;1.23;;
37787;SDS011;23627;53.302;-6.362;2024-02-14T06:22:30;7.03;;;1.10;;
37787;SDS011;23627;53.302;-6.362;2024-02-14T06:24:57;8.43;;;1.55;;
37787;SDS011;23627;53.302;-6.362;2024-02-14T06:27:23;8.15;;;1.33;;
37787;SDS011;23627;53.302;-6.362;2024-02-14T06:29:49;7.30;;;1.45;;
37787;SDS011;23627;53.302;-6.362;2024-02-14T06:32:15;6.25;;;1.20;;
37787;SDS011;23627;53.302;-6.362;2024-02-14T06:34:41;8.40;;;1.70;;
37787;SDS011;23627;53.302;-6.362;2024-02-14T06:37:10;12.07;;;1.50;;
37787;SDS011;23627;53.302;-6.362;2024-02-14T06:39:38;9.48;;;1.30;;
37787;SDS011;23627;53.302;-6.362;2024-02-14T06:42:04;12.57;;;1.60;;
37787;SDS011;23627;53.302;-6.362;2024-02-14T06:44:30;11.15;;;1.83;;
37787;SDS011;23627;53.302;-6.362;2024-02-14T06:46:56;9.57;;;1.73;;
37787;SDS011;23627;53.302;-6.362;2024-02-14T06:49:21;11.07;;;1.52;;
37787;SDS011;23627;53.302;-6.362;2024-02-14T06:51:51;7.60;;;1.30;;
37787;SDS011;23627;53.302;-6.362;2024-02-14T06:54:17;10.05;;;1.60;;
37787;SDS011;23627;53.302;-6.362;2024-02-14T06:56:44;8.60;;;1.15;;
37787;SDS011;23627;53.302;-6.362;2024-02-14T06:59:10;9.35;;;1.77;;
37787;SDS011;23627;53.302;-6.362;2024-02-14T07:01:36;10.27;;;1.50;;
37787;SDS011;23627;53.302;-6.362;2024-02-14T07:04:03;12.65;;;1.65;;
37787;SDS011;23627;53.302;-6.362;2024-02-14T07:06:29;9.15;;;1.65;;
37787;SDS011;23627;53.302;-6.362;2024-02-14T07:08:56;11.05;;;1.58;;
37787;SDS011;23627;53.302;-6.362;2024-02-14T07:11:22;9.60;;;1.83;;
37787;SDS011;23627;53.302;-6.362;2024-02-14T07:13:49;10.73;;;1.85;;
37787;SDS011;23627;53.302;-6.362;2024-02-14T07:16:15;8.85;;;1.60;;
37787;SDS011;23627;53.302;-6.362;2024-02-14T07:18:40;9.65;;;1.88;;
37787;SDS011;23627;53.302;-6.362;2024-02-14T07:21:06;8.38;;;1.58;;
37787;SDS011;23627;53.302;-6.362;2024-02-14T07:23:32;11.00;;;1.92;;
37787;SDS011;23627;53.302;-6.362;2024-02-14T07:26:01;8.43;;;1.50;;
37787;SDS011;23627;53.302;-6.362;2024-02-14T07:28:27;11.15;;;1.60;;
37787;SDS011;23627;53.302;-6.362;2024-02-14T07:30:53;11.02;;;1.65;;
37787;SDS011;23627;53.302;-6.362;2024-02-14T07:33:22;10.07;;;1.60;;
37787;SDS011;23627;53.302;-6.362;2024-02-14T07:35:48;9.05;;;1.58;;
37787;SDS011;23627;53.302;-6.362;2024-02-14T07:38:15;9.13;;;1.40;;
37787;SDS011;23627;53.302;-6.362;2024-02-14T07:40:41;6.65;;;1.20;;
37787;SDS011;23627;53.302;-6.362;2024-02-14T07:43:07;9.65;;;1.52;;
37787;SDS011;23627;53.302;-6.362;2024-02-14T07:45:33;7.93;;;1.60;;
37787;SDS011;23627;53.302;-6.362;2024-02-14T07:47:59;7.22;;;1.40;;
37787;SDS011;23627;53.302;-6.362;2024-02-14T07:50:25;7.57;;;1.48;;
37787;SDS011;23627;53.302;-6.362;2024-02-14T07:52:53;5.53;;;1.17;;
37787;SDS011;23627;53.302;-6.362;2024-02-14T07:55:21;8.88;;;1.15;;
37787;SDS011;23627;53.302;-6.362;2024-02-14T07:57:47;4.72;;;0.90;;
37787;SDS011;23627;53.302;-6.362;2024-02-14T08:00:14;9.13;;;1.85;;
37787;SDS011;23627;53.302;-6.362;2024-02-14T08:02:47;6.28;;;1.20;;
37787;SDS011;23627;53.302;-6.362;2024-02-14T08:05:13;6.43;;;1.13;;
37787;SDS011;23627;53.302;-6.362;2024-02-14T08:07:39;6.35;;;1.25;;
37787;SDS011;23627;53.302;-6.362;2024-02-14T08:10:05;4.38;;;1.00;;
37787;SDS011;23627;53.302;-6.362;2024-02-14T08:12:31;4.82;;;1.10;;
37787;SDS011;23627;53.302;-6.362;2024-02-14T08:14:57;5.57;;;0.73;;
37787;SDS011;23627;53.302;-6.362;2024-02-14T08:17:22;5.93;;;0.82;;
37787;SDS011;23627;53.302;-6.362;2024-02-14T08:19:48;4.95;;;0.80;;
37787;SDS011;23627;53.302;-6.362;2024-02-14T08:22:14;2.28;;;0.57;;
37787;SDS011;23627;53.302;-6.362;2024-02-14T08:24:40;3.83;;;0.60;;
37787;SDS011;23627;53.302;-6.362;2024-02-14T08:27:06;2.92;;;0.57;;
37787;SDS011;23627;53.302;-6.362;2024-02-14T08:29:32;3.10;;;0.50;;
37787;SDS011;23627;53.302;-6.362;2024-02-14T08:31:57;4.50;;;0.70;;
37787;SDS011;23627;53.302;-6.362;2024-02-14T08:34:23;4.15;;;0.50;;
37787;SDS011;23627;53.302;-6.362;2024-02-14T08:36:49;3.40;;;0.70;;
37787;SDS011;23627;53.302;-6.362;2024-02-14T08:39:14;3.88;;;0.43;;
37787;SDS011;23627;53.302;-6.362;2024-02-14T08:41:43;1.92;;;0.50;;
37787;SDS011;23627;53.302;-6.362;2024-02-14T08:44:12;5.13;;;0.75;;
37787;SDS011;23627;53.302;-6.362;2024-02-14T08:46:38;2.58;;;0.65;;
37787;SDS011;23627;53.302;-6.362;2024-02-14T08:49:07;2.95;;;0.60;;
37787;SDS011;23627;53.302;-6.362;2024-02-14T08:51:37;2.17;;;0.50;;
37787;SDS011;23627;53.302;-6.362;2024-02-14T08:54:03;2.38;;;0.40;;
37787;SDS011;23627;53.302;-6.362;2024-02-14T08:56:33;2.42;;;0.47;;
37787;SDS011;23627;53.302;-6.362;2024-02-14T08:59:02;3.20;;;0.40;;
37787;SDS011;23627;53.302;-6.362;2024-02-14T09:01:29;3.05;;;0.85;;
37787;SDS011;23627;53.302;-6.362;2024-02-14T09:03:55;2.13;;;0.50;;
37787;SDS011;23627;53.302;-6.362;2024-02-14T09:06:22;2.30;;;0.85;;
37787;SDS011;23627;53.302;-6.362;2024-02-14T09:08:48;5.88;;;1.00;;
37787;SDS011;23627;53.302;-6.362;2024-02-14T09:11:15;5.25;;;0.80;;
37787;SDS011;23627;53.302;-6.362;2024-02-14T09:13:41;4.43;;;0.52;;
37787;SDS011;23627;53.302;-6.362;2024-02-14T09:16:10;3.22;;;0.60;;
37787;SDS011;23627;53.302;-6.362;2024-02-14T09:18:36;2.95;;;0.60;;
37787;SDS011;23627;53.302;-6.362;2024-02-14T09:21:10;3.53;;;0.70;;
37787;SDS011;23627;53.302;-6.362;2024-02-14T09:23:36;3.22;;;0.55;;
37787;SDS011;23627;53.302;-6.362;2024-02-14T09:26:05;3.17;;;0.60;;
37787;SDS011;23627;53.302;-6.362;2024-02-14T09:28:31;5.88;;;0.70;;
37787;SDS011;23627;53.302;-6.362;2024-02-14T09:30:58;4.43;;;0.70;;
37787;SDS011;23627;53.302;-6.362;2024-02-14T09:33:32;3.63;;;0.55;;
37787;SDS011;23627;53.302;-6.362;2024-02-14T09:35:58;4.30;;;1.00;;
37787;SDS011;23627;53.302;-6.362;2024-02-14T09:38:24;6.22;;;0.80;;
37787;SDS011;23627;53.302;-6.362;2024-02-14T09:40:53;3.30;;;0.70;;
37787;SDS011;23627;53.302;-6.362;2024-02-14T09:43:24;3.67;;;0.95;;
37787;SDS011;23627;53.302;-6.362;2024-02-14T09:45:59;4.05;;;0.80;;
37787;SDS011;23627;53.302;-6.362;2024-02-14T09:48:28;3.85;;;0.70;;
37787;SDS011;23627;53.302;-6.362;2024-02-14T09:50:56;2.38;;;0.57;;
37787;SDS011;23627;53.302;-6.362;2024-02-14T09:53:22;3.35;;;0.98;;
37787;SDS011;23627;53.302;-6.362;2024-02-14T09:55:49;3.53;;;0.77;;
37787;SDS011;23627;53.302;-6.362;2024-02-14T09:58:15;2.90;;;0.70;;
37787;SDS011;23627;53.302;-6.362;2024-02-14T10:00:42;4.00;;;0.60;;
37787;SDS011;23627;53.302;-6.362;2024-02-14T10:03:08;2.75;;;0.60;;
37787;SDS011;23627;53.302;-6.362;2024-02-14T10:05:34;4.70;;;0.57;;
37787;SDS011;23627;53.302;-6.362;2024-02-14T10:08:00;1.75;;;0.50;;
37787;SDS011;23627;53.302;-6.362;2024-02-14T10:10:26;2.30;;;0.40;;
37787;SDS011;23627;53.302;-6.362;2024-02-14T10:12:55;3.10;;;0.90;;
37787;SDS011;23627;53.302;-6.362;2024-02-14T10:15:22;2.72;;;0.60;;
37787;SDS011;23627;53.302;-6.362;2024-02-14T10:17:47;3.97;;;1.02;;
37787;SDS011;23627;53.302;-6.362;2024-02-14T10:20:16;2.40;;;0.70;;
37787;SDS011;23627;53.302;-6.362;2024-02-14T10:22:43;5.10;;;0.70;;
37787;SDS011;23627;53.302;-6.362;2024-02-14T10:25:09;2.90;;;0.80;;
37787;SDS011;23627;53.302;-6.362;2024-02-14T10:27:38;2.53;;;0.70;;
37787;SDS011;23627;53.302;-6.362;2024-02-14T10:30:05;3.88;;;0.75;;
37787;SDS011;23627;53.302;-6.362;2024-02-14T10:32:38;1.63;;;0.50;;
37787;SDS011;23627;53.302;-6.362;2024-02-14T10:35:13;3.78;;;1.02;;
37787;SDS011;23627;53.302;-6.362;2024-02-14T10:37:40;2.42;;;0.60;;
37787;SDS011;23627;53.302;-6.362;2024-02-14T10:40:06;2.90;;;0.60;;
37787;SDS011;23627;53.302;-6.362;2024-02-14T10:42:34;1.92;;;0.90;;
37787;SDS011;23627;53.302;-6.362;2024-02-14T10:45:00;2.20;;;0.50;;
37787;SDS011;23627;53.302;-6.362;2024-02-14T10:47:31;2.42;;;0.57;;
37787;SDS011;23627;53.302;-6.362;2024-02-14T10:50:04;2.05;;;0.50;;
37787;SDS011;23627;53.302;-6.362;2024-02-14T10:52:32;2.05;;;0.50;;
37787;SDS011;23627;53.302;-6.362;2024-02-14T10:55:03;3.80;;;0.70;;
37787;SDS011;23627;53.302;-6.362;2024-02-14T10:57:30;2.35;;;0.50;;
37787;SDS011;23627;53.302;-6.362;2024-02-14T10:59:58;2.63;;;0.60;;
37787;SDS011;23627;53.302;-6.362;2024-02-14T11:02:27;3.05;;;0.50;;
37787;SDS011;23627;53.302;-6.362;2024-02-14T11:04:55;2.47;;;0.47;;
37787;SDS011;23627;53.302;-6.362;2024-02-14T11:07:22;2.05;;;0.60;;
37787;SDS011;23627;53.302;-6.362;2024-02-14T11:09:48;1.55;;;0.52;;
37787;SDS011;23627;53.302;-6.362;2024-02-14T11:12:25;2.00;;;0.40;;
37787;SDS011;23627;53.302;-6.362;2024-02-14T11:14:51;1.00;;;0.40;;
37787;SDS011;23627;53.302;-6.362;2024-02-14T11:17:23;2.20;;;0.45;;
37787;SDS011;23627;53.302;-6.362;2024-02-14T11:19:51;1.33;;;0.32;;
37787;SDS011;23627;53.302;-6.362;2024-02-14T11:22:18;2.83;;;0.60;;
37787;SDS011;23627;53.302;-6.362;2024-02-14T11:24:48;2.30;;;0.38;;
37787;SDS011;23627;53.302;-6.362;2024-02-14T11:27:14;2.90;;;0.50;;
37787;SDS011;23627;53.302;-6.362;2024-02-14T11:29:51;3.90;;;0.47;;
37787;SDS011;23627;53.302;-6.362;2024-02-14T11:32:18;1.60;;;0.50;;
37787;SDS011;23627;53.302;-6.362;2024-02-14T11:35:05;3.75;;;0.65;;
37787;SDS011;23627;53.302;-6.362;2024-02-14T11:37:31;1.73;;;0.40;;
37787;SDS011;23627;53.302;-6.362;2024-02-14T11:40:00;2.00;;;0.38;;
37787;SDS011;23627;53.302;-6.362;2024-02-14T11:42:26;2.03;;;0.40;;
37787;SDS011;23627;53.302;-6.362;2024-02-14T11:44:52;1.90;;;0.40;;
37787;SDS011;23627;53.302;-6.362;2024-02-14T11:47:20;1.70;;;0.50;;
37787;SDS011;23627;53.302;-6.362;2024-02-14T11:49:47;1.85;;;0.32;;
37787;SDS011;23627;53.302;-6.362;2024-02-14T11:52:13;1.10;;;0.50;;
37787;SDS011;23627;53.302;-6.362;2024-02-14T11:54:39;1.40;;;0.40;;
37787;SDS011;23627;53.302;-6.362;2024-02-14T11:57:11;1.77;;;0.40;;
37787;SDS011;23627;53.302;-6.362;2024-02-14T11:59:37;2.25;;;0.38;;
37787;SDS011;23627;53.302;-6.362;2024-02-14T12:02:03;1.98;;;0.30;;
37787;SDS011;23627;53.302;-6.362;2024-02-14T12:04:29;1.55;;;0.30;;
37787;SDS011;23627;53.302;-6.362;2024-02-14T12:06:56;1.75;;;0.50;;
37787;SDS011;23627;53.302;-6.362;2024-02-14T12:09:22;1.00;;;0.38;;
37787;SDS011;23627;53.302;-6.362;2024-02-14T12:11:48;1.88;;;0.40;;
37787;SDS011;23627;53.302;-6.362;2024-02-14T12:14:17;3.30;;;0.50;;
37787;SDS011;23627;53.302;-6.362;2024-02-14T12:16:47;1.95;;;0.50;;
37787;SDS011;23627;53.302;-6.362;2024-02-14T12:19:18;2.55;;;0.30;;
37787;SDS011;23627;53.302;-6.362;2024-02-14T12:21:58;1.58;;;0.40;;
37787;SDS011;23627;53.302;-6.362;2024-02-14T12:24:27;1.52;;;0.40;;
37787;SDS011;23627;53.302;-6.362;2024-02-14T12:26:54;3.42;;;0.63;;
37787;SDS011;23627;53.302;-6.362;2024-02-14T12:29:20;2.20;;;0.43;;
37787;SDS011;23627;53.302;-6.362;2024-02-14T12:31:48;2.70;;;0.63;;
37787;SDS011;23627;53.302;-6.362;2024-02-14T12:34:14;2.72;;;0.60;;
37787;SDS011;23627;53.302;-6.362;2024-02-14T12:36:40;1.70;;;0.50;;
37787;SDS011;23627;53.302;-6.362;2024-02-14T12:39:06;2.38;;;0.60;;
37787;SDS011;23627;53.302;-6.362;2024-02-14T12:41:34;3.17;;;0.93;;
37787;SDS011;23627;53.302;-6.362;2024-02-14T12:44:00;1.92;;;0.47;;
37787;SDS011;23627;53.302;-6.362;2024-02-14T12:46:28;4.70;;;0.65;;
37787;SDS011;23627;53.302;-6.362;2024-02-14T12:48:54;3.35;;;0.73;;
37787;SDS011;23627;53.302;-6.362;2024-02-14T12:51:21;3.85;;;0.70;;
37787;SDS011;23627;53.302;-6.362;2024-02-14T12:53:52;5.28;;;0.80;;
37787;SDS011;23627;53.302;-6.362;2024-02-14T12:56:18;2.75;;;0.68;;
37787;SDS011;23627;53.302;-6.362;2024-02-14T12:58:44;4.00;;;0.77;;
37787;SDS011;23627;53.302;-6.362;2024-02-14T13:01:11;3.88;;;0.60;;
37787;SDS011;23627;53.302;-6.362;2024-02-14T13:03:38;3.88;;;1.08;;
37787;SDS011;23627;53.302;-6.362;2024-02-14T13:06:04;4.35;;;1.02;;
37787;SDS011;23627;53.302;-6.362;2024-02-14T13:08:30;3.20;;;0.70;;
37787;SDS011;23627;53.302;-6.362;2024-02-14T13:10:57;3.55;;;0.93;;
37787;SDS011;23627;53.302;-6.362;2024-02-14T13:13:23;3.95;;;0.82;;
37787;SDS011;23627;53.302;-6.362;2024-02-14T13:15:51;4.50;;;0.90;;
37787;SDS011;23627;53.302;-6.362;2024-02-14T13:18:17;7.88;;;1.15;;
37787;SDS011;23627;53.302;-6.362;2024-02-14T13:20:44;4.93;;;1.17;;
37787;SDS011;23627;53.302;-6.362;2024-02-14T13:23:09;4.00;;;0.90;;
37787;SDS011;23627;53.302;-6.362;2024-02-14T13:25:35;5.50;;;1.25;;
37787;SDS011;23627;53.302;-6.362;2024-02-14T13:28:03;6.38;;;1.42;;
37787;SDS011;23627;53.302;-6.362;2024-02-14T13:30:29;4.93;;;1.10;;
37787;SDS011;23627;53.302;-6.362;2024-02-14T13:32:55;8.57;;;1.70;;
37787;SDS011;23627;53.302;-6.362;2024-02-14T13:35:22;6.30;;;1.48;;
37787;SDS011;23627;53.302;-6.362;2024-02-14T13:37:50;8.55;;;1.48;;
37787;SDS011;23627;53.302;-6.362;2024-02-14T13:40:18;8.30;;;1.63;;
37787;SDS011;23627;53.302;-6.362;2024-02-14T13:42:44;5.93;;;1.40;;
37787;SDS011;23627;53.302;-6.362;2024-02-14T13:45:10;7.40;;;1.75;;
37787;SDS011;23627;53.302;-6.362;2024-02-14T13:47:39;7.22;;;1.80;;
37787;SDS011;23627;53.302;-6.362;2024-02-14T13:50:09;6.82;;;1.60;;
37787;SDS011;23627;53.302;-6.362;2024-02-14T13:52:35;7.35;;;1.50;;
37787;SDS011;23627;53.302;-6.362;2024-02-14T13:55:02;7.40;;;1.90;;
37787;SDS011;23627;53.302;-6.362;2024-02-14T13:57:30;10.25;;;1.95;;
37787;SDS011;23627;53.302;-6.362;2024-02-14T13:59:57;7.68;;;1.92;;
37787;SDS011;23627;53.302;-6.362;2024-02-14T14:02:23;9.35;;;1.85;;
37787;SDS011;23627;53.302;-6.362;2024-02-14T14:04:49;8.80;;;2.30;;
37787;SDS011;23627;53.302;-6.362;2024-02-14T14:07:15;7.65;;;2.15;;
37787;SDS011;23627;53.302;-6.362;2024-02-14T14:09:41;7.25;;;2.03;;
37787;SDS011;23627;53.302;-6.362;2024-02-14T14:12:07;10.25;;;2.30;;
37787;SDS011;23627;53.302;-6.362;2024-02-14T14:14:33;10.73;;;2.10;;
37787;SDS011;23627;53.302;-6.362;2024-02-14T14:16:59;8.80;;;2.28;;
37787;SDS011;23627;53.302;-6.362;2024-02-14T14:19:28;10.18;;;2.45;;
37787;SDS011;23627;53.302;-6.362;2024-02-14T14:21:53;10.23;;;2.05;;
37787;SDS011;23627;53.302;-6.362;2024-02-14T14:24:20;10.25;;;2.30;;
37787;SDS011;23627;53.302;-6.362;2024-02-14T14:26:51;8.50;;;2.25;;
37787;SDS011;23627;53.302;-6.362;2024-02-14T14:29:17;8.68;;;2.20;;
37787;SDS011;23627;53.302;-6.362;2024-02-14T14:31:45;11.30;;;2.47;;
37787;SDS011;23627;53.302;-6.362;2024-02-14T14:34:12;10.50;;;2.17;;